createdAt,value
2018-12-15T09:22:11.780Z,23.95
2018-12-15T09:24:41.726Z,23.60
2018-12-15T09:27:11.957Z,23.44
2018-12-15T09:29:41.963Z,23.33
2018-12-15T09:32:11.950Z,23.29
2018-12-15T09:34:42.101Z,23.21
2018-12-15T09:37:12.001Z,23.21
2018-12-15T09:39:42.524Z,23.17
2018-12-15T09:42:12.766Z,23.17
2018-12-15T09:44:43.076Z,23.20
2018-12-15T09:47:13.031Z,23.17
2018-12-15T09:49:43.029Z,23.23
2018-12-15T09:52:13.380Z,23.25
2018-12-15T09:57:24.473Z,23.18
2018-12-15T09:59:54.547Z,23.14
2018-12-15T10:02:24.666Z,23.17
2018-12-15T10:04:54.544Z,23.18
2018-12-15T10:07:24.596Z,23.09
2018-12-15T10:09:54.711Z,23.09
2018-12-15T10:12:24.610Z,23.12
2018-12-15T10:14:54.589Z,23.17
2018-12-15T10:17:24.557Z,23.15
2018-12-15T10:19:54.567Z,23.11
2018-12-15T10:22:24.571Z,23.09
2018-12-15T10:24:54.596Z,23.07
2018-12-15T10:27:24.769Z,23.09
2018-12-15T10:29:58.721Z,23.08
2018-12-15T10:35:20.975Z,23.16
2018-12-15T10:37:51.056Z,23.11
2018-12-15T10:40:21.006Z,23.07
2018-12-15T10:45:19.899Z,23.11
2018-12-15T10:47:50.017Z,23.11
2018-12-15T10:50:20.186Z,23.07
2018-12-15T10:52:50.258Z,23.11
2018-12-15T10:55:20.470Z,23.11
2018-12-15T10:57:50.485Z,22.98
2018-12-15T11:00:24.507Z,23.01
2018-12-15T11:02:54.930Z,23.17
2018-12-15T11:05:24.937Z,23.13
2018-12-15T11:07:54.949Z,23.08
2018-12-15T11:10:25.050Z,23.15
2018-12-15T11:12:54.902Z,23.12
2018-12-15T11:15:24.961Z,23.22
2018-12-15T11:17:55.017Z,23.14
2018-12-15T11:20:25.138Z,23.18
2018-12-15T11:22:55.041Z,23.15
2018-12-15T11:25:25.054Z,23.13
2018-12-15T11:27:55.287Z,23.02
2018-12-15T11:30:25.701Z,23.06
2018-12-15T11:32:55.751Z,23.00
2018-12-15T11:35:25.849Z,23.10
2018-12-15T11:37:55.968Z,23.29
2018-12-15T11:40:26.072Z,23.30
2018-12-15T11:42:56.007Z,23.31
2018-12-15T11:45:27.371Z,23.24
2018-12-15T11:47:57.546Z,23.16
2018-12-15T11:52:16.311Z,22.57
2018-12-15T11:54:46.351Z,22.20
2018-12-15T11:57:16.401Z,22.02
2018-12-15T11:59:46.577Z,21.93
2018-12-15T12:02:17.402Z,21.89
2018-12-15T12:04:47.432Z,21.87
2018-12-15T12:07:17.652Z,21.84
2018-12-15T12:09:47.728Z,21.84
2018-12-15T12:12:17.841Z,21.83
2018-12-15T12:14:47.785Z,21.81
2018-12-15T12:17:17.901Z,21.82
2018-12-15T12:19:50.304Z,21.80
2018-12-15T12:22:19.671Z,21.82
2018-12-15T12:24:49.699Z,21.88
2018-12-15T12:27:19.917Z,21.87
2018-12-15T12:29:50.037Z,21.85
2018-12-15T12:32:20.252Z,21.82
2018-12-15T12:34:50.367Z,21.81
2018-12-15T12:37:20.355Z,21.79
2018-12-15T12:39:50.469Z,21.79
2018-12-15T12:42:20.406Z,21.77
2018-12-15T12:44:50.738Z,21.77
2018-12-15T12:47:21.125Z,21.75
2018-12-15T12:49:56.652Z,21.75
2018-12-15T12:52:23.336Z,21.75
2018-12-15T12:54:53.359Z,21.74
2018-12-15T12:57:23.787Z,21.72
2018-12-15T12:59:53.889Z,21.72
2018-12-15T13:02:24.121Z,21.72
2018-12-15T13:04:54.238Z,21.70
2018-12-15T13:07:24.271Z,21.71
2018-12-15T13:09:54.566Z,21.72
2018-12-15T13:12:25.092Z,21.71
2018-12-15T13:14:55.024Z,21.69
2018-12-15T13:17:25.230Z,21.70
2018-12-15T13:19:55.357Z,21.69
2018-12-15T13:22:25.368Z,21.68
2018-12-15T13:24:55.341Z,21.69
2018-12-15T13:27:26.021Z,21.68
2018-12-15T13:29:56.278Z,21.67
2018-12-15T13:32:26.338Z,21.67
2018-12-15T13:34:56.464Z,21.67
2018-12-15T13:37:26.998Z,21.62
2018-12-15T13:39:57.109Z,21.59
2018-12-15T13:42:27.337Z,21.57
2018-12-15T13:44:57.768Z,21.56
2018-12-15T13:47:27.775Z,21.53
2018-12-15T13:49:58.199Z,21.54
2018-12-15T13:52:28.121Z,21.55
2018-12-15T13:54:58.711Z,21.54
2018-12-15T13:57:29.816Z,21.54
2018-12-15T14:00:00.256Z,21.54
2018-12-15T14:02:31.290Z,21.54
2018-12-15T14:05:01.370Z,21.53
2018-12-15T14:07:32.301Z,21.53
2018-12-15T14:10:02.514Z,21.53
2018-12-15T14:12:33.446Z,21.52
2018-12-15T14:15:03.888Z,21.51
2018-12-15T14:17:34.210Z,21.50
2018-12-15T14:20:04.824Z,21.50
2018-12-15T14:22:35.367Z,21.49
2018-12-15T14:25:05.685Z,21.50
2018-12-15T14:27:35.794Z,21.50
2018-12-15T14:30:07.564Z,21.49
2018-12-15T14:32:37.777Z,21.49
2018-12-15T14:35:08.513Z,21.48
2018-12-15T14:37:38.837Z,21.48
2018-12-15T14:40:09.152Z,21.47
2018-12-15T14:42:39.923Z,21.46
2018-12-15T14:45:10.007Z,21.45
2018-12-15T14:47:40.117Z,21.44
2018-12-15T14:50:10.336Z,21.45
2018-12-15T14:52:40.451Z,21.46
2018-12-15T14:55:10.980Z,21.44
2018-12-15T14:57:41.050Z,21.44
2018-12-15T15:00:11.863Z,21.43
2018-12-15T15:02:42.677Z,21.42
2018-12-15T15:05:13.189Z,21.42
2018-12-15T15:07:43.966Z,21.43
2018-12-15T15:10:14.370Z,21.40
2018-12-15T15:12:44.778Z,21.41
2018-12-15T15:15:14.896Z,21.40
2018-12-15T15:17:45.117Z,21.39
2018-12-15T15:20:15.326Z,21.38
2018-12-15T15:22:45.413Z,21.38
2018-12-15T15:25:15.578Z,21.38
2018-12-15T15:27:45.785Z,21.38
2018-12-15T15:30:16.150Z,21.38
2018-12-15T15:32:46.533Z,21.38
2018-12-15T15:35:16.883Z,21.53
2018-12-15T15:37:47.187Z,21.60
2018-12-15T15:40:17.279Z,21.64
2018-12-15T15:42:47.314Z,21.67
2018-12-15T15:45:17.418Z,21.68
2018-12-15T15:47:48.061Z,21.68
2018-12-15T15:50:18.426Z,21.69
2018-12-15T15:52:48.605Z,21.66
2018-12-15T15:55:18.615Z,21.66
2018-12-15T15:57:48.746Z,21.67
2018-12-15T16:00:19.409Z,21.67
2018-12-15T16:02:49.527Z,21.68
2018-12-15T16:05:19.596Z,21.67
2018-12-15T16:07:49.715Z,21.67
2018-12-15T16:10:20.026Z,21.69
2018-12-15T16:12:50.140Z,21.68
2018-12-15T16:15:20.285Z,21.65
2018-12-15T16:17:50.338Z,21.64
2018-12-15T16:20:20.544Z,21.63
2018-12-15T16:22:50.740Z,21.63
2018-12-15T16:25:20.960Z,21.64
2018-12-15T16:27:51.089Z,21.64
2018-12-15T16:30:21.287Z,21.68
2018-12-15T16:32:51.266Z,21.70
2018-12-15T16:35:21.837Z,21.72
2018-12-15T16:37:52.182Z,21.71
2018-12-15T16:40:22.749Z,21.71
2018-12-15T16:42:53.003Z,21.76
2018-12-15T16:45:23.120Z,21.74
2018-12-15T16:47:54.935Z,21.75
2018-12-15T16:50:24.786Z,21.74
2018-12-15T16:52:55.286Z,21.75
2018-12-15T16:55:25.677Z,21.74
2018-12-15T16:57:55.797Z,21.76
2018-12-15T17:00:26.398Z,21.75
2018-12-15T17:02:56.426Z,21.77
2018-12-15T17:05:27.147Z,21.77
2018-12-15T17:07:57.235Z,21.79
2018-12-15T17:10:27.473Z,21.79
2018-12-15T17:12:57.716Z,21.80
2018-12-15T17:15:27.856Z,21.79
2018-12-15T17:17:57.937Z,21.81
2018-12-15T17:20:28.258Z,21.82
2018-12-15T17:22:58.322Z,21.83
2018-12-15T17:25:29.751Z,21.83
2018-12-15T17:28:00.150Z,21.84
2018-12-15T17:30:30.259Z,21.84
2018-12-15T17:33:00.441Z,21.84
2018-12-15T17:38:55.307Z,10.63
2018-12-15T17:41:26.137Z,5.75
2018-12-15T17:43:56.336Z,3.73
2018-12-15T17:46:27.081Z,1.76
2018-12-15T17:48:57.747Z,1.02
2018-12-15T17:51:27.956Z,0.34
2018-12-15T17:53:58.231Z,0.00
2018-12-15T17:56:28.279Z,-0.09
2018-12-15T17:58:58.397Z,-0.30
2018-12-15T18:01:28.516Z,-0.38
2018-12-15T18:03:58.709Z,-0.45
2018-12-15T18:06:28.657Z,-0.45
2018-12-15T18:08:58.877Z,-0.48
2018-12-15T18:11:29.047Z,-0.50
2018-12-15T18:14:00.607Z,-0.56
2018-12-15T18:16:30.866Z,-0.54
2018-12-15T18:19:01.176Z,-0.54
2018-12-15T18:21:31.625Z,-0.56
2018-12-15T18:24:01.706Z,-0.61
2018-12-15T18:26:41.394Z,-0.60
2018-12-15T18:29:11.831Z,-0.61
2018-12-15T18:31:42.082Z,-0.58
2018-12-15T18:34:13.016Z,-0.62
2018-12-15T18:36:43.172Z,-0.61
2018-12-15T18:39:14.690Z,-0.59
2018-12-15T18:41:44.861Z,-0.61
2018-12-15T18:44:18.011Z,-0.56
2018-12-15T18:46:51.957Z,-0.54
2018-12-15T18:49:22.358Z,-0.53
2018-12-15T18:51:52.461Z,-0.52
2018-12-15T18:54:22.474Z,-0.51
2018-12-15T18:56:52.907Z,-0.55
2018-12-15T18:59:23.253Z,-0.51
2018-12-15T19:01:53.543Z,-0.52
2018-12-15T19:04:25.811Z,-0.55
2018-12-15T19:07:02.007Z,-0.56
2018-12-15T19:09:32.966Z,-0.58
2018-12-15T19:12:03.537Z,-0.55
2018-12-15T19:14:33.581Z,-0.54
2018-12-15T19:17:03.859Z,-0.54
2018-12-15T19:19:34.400Z,-0.60
2018-12-15T19:22:04.528Z,-0.61
2018-12-15T19:24:34.636Z,-0.60
2018-12-15T19:27:04.712Z,-0.56
2018-12-15T19:29:38.066Z,-0.63
2018-12-15T19:32:09.032Z,-0.64
2018-12-15T19:34:43.362Z,-0.63
2018-12-15T19:37:13.738Z,-0.62
2018-12-15T19:39:43.915Z,-0.64
2018-12-15T19:42:14.171Z,-0.61
2018-12-15T19:44:48.053Z,-0.59
2018-12-15T19:47:18.066Z,-0.58
2018-12-15T19:49:53.133Z,-0.61
2018-12-15T19:52:23.751Z,-0.63
2018-12-15T19:55:01.186Z,-0.63
2018-12-15T19:57:32.331Z,-0.64
2018-12-15T20:00:02.386Z,-0.65
2018-12-15T20:02:32.418Z,-0.64
2018-12-15T20:07:51.298Z,-0.67
2018-12-15T20:10:21.517Z,-0.67
2018-12-15T20:12:52.689Z,-0.65
2018-12-15T20:15:24.427Z,-0.68
2018-12-15T20:17:54.576Z,-0.65
2018-12-15T20:20:24.676Z,-0.67
2018-12-15T20:22:58.620Z,-0.60
2018-12-15T20:25:32.166Z,-0.67
2018-12-15T20:28:02.792Z,-0.64
2018-12-15T20:30:33.162Z,-0.69
2018-12-15T20:33:06.391Z,-0.67
2018-12-15T20:35:39.412Z,-0.68
2018-12-15T20:38:10.476Z,-0.69
2018-12-15T20:40:42.412Z,-0.69
2018-12-15T20:43:12.921Z,-0.68
2018-12-15T20:45:44.544Z,-0.68
2018-12-15T20:48:15.371Z,-0.68
2018-12-15T20:50:45.437Z,-0.63
2018-12-15T20:53:15.627Z,-0.66
2018-12-15T20:55:45.871Z,-0.69
2018-12-15T20:58:16.278Z,-0.69
2018-12-15T21:00:47.122Z,-0.63
2018-12-15T21:03:20.253Z,-0.66
2018-12-15T21:05:50.518Z,-0.70
2018-12-15T21:08:21.634Z,-0.69
2018-12-15T21:10:52.646Z,-0.74
2018-12-15T21:13:23.055Z,-0.72
2018-12-15T21:15:56.318Z,-0.71
2018-12-15T21:18:33.088Z,-0.67
2018-12-15T21:21:03.318Z,-0.68
2018-12-15T21:23:34.036Z,-0.69
2018-12-15T21:26:07.715Z,-0.70
2018-12-15T21:28:37.649Z,-0.68
2018-12-15T21:31:09.927Z,-0.69
2018-12-15T21:33:40.032Z,-0.67
2018-12-15T21:36:14.161Z,-0.70
2018-12-15T21:38:44.362Z,-0.71
2018-12-15T21:41:16.167Z,-0.67
2018-12-15T21:43:46.136Z,-0.70
2018-12-15T21:46:16.057Z,-0.68
2018-12-15T21:48:47.425Z,-0.69
2018-12-15T21:51:18.652Z,-0.69
2018-12-15T21:53:50.031Z,-0.70
2018-12-15T21:56:20.376Z,-0.67
2018-12-15T21:58:50.486Z,-0.71
2018-12-15T22:01:20.827Z,-0.68
2018-12-15T22:03:51.178Z,-0.69
2018-12-15T22:06:21.708Z,-0.69
2018-12-15T22:08:52.037Z,-0.64
2018-12-15T22:11:22.241Z,-0.64
2018-12-15T22:13:52.203Z,-0.60
2018-12-15T22:16:22.242Z,-0.61
2018-12-15T22:18:52.299Z,-0.61
2018-12-15T22:21:22.420Z,-0.60
2018-12-15T22:23:52.351Z,-0.65
2018-12-15T22:26:22.552Z,-0.66
2018-12-15T22:28:52.480Z,-0.71
2018-12-15T22:31:22.581Z,-0.64
2018-12-15T22:33:52.511Z,-0.68
2018-12-15T22:36:22.494Z,-0.70
2018-12-15T22:38:52.510Z,-0.68
2018-12-15T22:41:22.450Z,-0.72
2018-12-15T22:43:52.562Z,-0.69
2018-12-15T22:46:22.777Z,-0.69
2018-12-15T22:48:52.883Z,-0.71
2018-12-15T22:51:22.833Z,-0.72
2018-12-15T22:53:52.912Z,-0.70
2018-12-15T22:56:23.037Z,-0.70
2018-12-15T22:58:53.046Z,-0.68
2018-12-15T23:01:24.724Z,-0.71
2018-12-15T23:03:54.796Z,-0.69
2018-12-15T23:06:24.842Z,-0.66
2018-12-15T23:08:54.776Z,-0.65
2018-12-15T23:11:24.782Z,-0.69
2018-12-15T23:13:54.973Z,-0.68
2018-12-15T23:16:25.630Z,-0.67
2018-12-15T23:18:55.546Z,-0.72
2018-12-15T23:21:25.536Z,-0.69
2018-12-15T23:23:55.440Z,-0.66
2018-12-15T23:26:25.478Z,-0.69
2018-12-15T23:28:55.375Z,-0.69
2018-12-15T23:31:25.352Z,-0.67
2018-12-15T23:33:55.417Z,-0.70
2018-12-15T23:36:25.525Z,-0.69
2018-12-15T23:38:55.567Z,-0.74
2018-12-15T23:41:25.716Z,-0.73
2018-12-15T23:43:55.577Z,-0.66
2018-12-15T23:46:25.686Z,-0.67
2018-12-15T23:48:55.717Z,-0.70
2018-12-15T23:51:25.716Z,-0.70
2018-12-15T23:53:55.747Z,-0.64
2018-12-15T23:56:25.766Z,-0.64
2018-12-15T23:58:55.681Z,-0.63
